createdAt,value
2023-05-08T00:01:13.673Z,12.83
2023-05-08T00:03:41.167Z,12.81
2023-05-08T00:06:09.392Z,12.80
2023-05-08T00:08:36.484Z,12.79
2023-05-08T00:11:03.581Z,12.78
2023-05-08T00:13:30.710Z,12.75
2023-05-08T00:15:57.838Z,12.73
2023-05-08T00:18:25.042Z,12.70
2023-05-08T00:20:52.706Z,12.69
2023-05-08T00:23:22.221Z,12.64
2023-05-08T00:25:50.539Z,12.63
2023-05-08T00:28:18.203Z,12.61
2023-05-08T00:30:45.298Z,12.59
2023-05-08T00:33:12.579Z,12.58
2023-05-08T00:35:42.459Z,12.57
2023-05-08T00:38:10.126Z,12.55
2023-05-08T00:40:37.408Z,12.55
2023-05-08T00:43:04.509Z,12.55
2023-05-08T00:45:38.978Z,12.55
2023-05-08T00:48:06.767Z,12.54
2023-05-08T00:50:33.911Z,12.53
2023-05-08T00:53:01.458Z,12.52
2023-05-08T00:55:28.551Z,12.52
2023-05-08T00:57:55.848Z,12.51
2023-05-08T01:00:23.452Z,12.50
2023-05-08T01:02:50.752Z,12.48
2023-05-08T01:05:17.974Z,12.47
2023-05-08T01:07:46.187Z,12.48
2023-05-08T01:10:13.566Z,12.49
2023-05-08T01:13:00.382Z,12.48
2023-05-08T01:15:43.185Z,12.45
2023-05-08T01:18:35.260Z,12.41
2023-05-08T01:21:27.378Z,12.37
2023-05-08T01:24:24.712Z,12.35
2023-05-08T01:27:03.004Z,12.34
2023-05-08T01:29:39.187Z,12.33
2023-05-08T01:32:12.207Z,12.33
2023-05-08T01:34:45.116Z,12.33
2023-05-08T01:37:15.044Z,12.33
2023-05-08T01:39:53.809Z,12.35
2023-05-08T01:42:24.131Z,12.36
2023-05-08T01:44:54.295Z,12.34
2023-05-08T01:47:21.873Z,12.31
2023-05-08T01:49:49.897Z,12.31
2023-05-08T01:52:20.811Z,12.31
2023-05-08T01:54:56.774Z,12.28
2023-05-08T01:57:25.214Z,12.24
2023-05-08T01:59:52.312Z,12.20
2023-05-08T02:02:19.456Z,12.16
2023-05-08T02:04:47.153Z,12.12
2023-05-08T02:07:14.370Z,12.10
2023-05-08T02:09:42.315Z,12.06
2023-05-08T02:12:09.491Z,12.04
2023-05-08T02:14:36.820Z,12.02
2023-05-08T02:17:04.154Z,12.02
2023-05-08T02:19:31.407Z,12.00
2023-05-08T02:21:58.743Z,11.98
2023-05-08T02:24:25.810Z,11.97
2023-05-08T02:26:53.237Z,11.96
2023-05-08T02:29:21.529Z,11.95
2023-05-08T02:31:48.645Z,11.94
2023-05-08T02:34:15.718Z,11.93
2023-05-08T02:36:43.800Z,11.92
2023-05-08T02:39:12.452Z,11.91
2023-05-08T02:41:40.391Z,11.91
2023-05-08T02:44:07.705Z,11.91
2023-05-08T02:46:56.620Z,11.88
2023-05-08T02:49:27.355Z,11.88
2023-05-08T02:52:03.495Z,11.87
2023-05-08T02:54:40.236Z,11.83
2023-05-08T02:57:28.789Z,11.80
2023-05-08T03:00:16.524Z,11.79
2023-05-08T03:02:46.024Z,11.76
2023-05-08T03:05:32.827Z,11.74
2023-05-08T03:08:14.267Z,11.74
2023-05-08T03:10:42.790Z,11.75
2023-05-08T03:13:10.042Z,11.76
2023-05-08T03:15:45.054Z,11.75
2023-05-08T03:18:15.398Z,11.77
2023-05-08T03:20:45.025Z,11.77
2023-05-08T03:23:16.353Z,11.77
2023-05-08T03:25:43.705Z,11.78
2023-05-08T03:28:12.163Z,11.77
2023-05-08T03:30:41.284Z,11.74
2023-05-08T03:33:11.840Z,11.69
2023-05-08T03:35:39.389Z,11.65
2023-05-08T03:38:08.298Z,11.67
2023-05-08T03:40:44.960Z,11.66
2023-05-08T03:43:12.397Z,11.66
2023-05-08T03:45:40.830Z,11.67
2023-05-08T03:48:08.769Z,11.71
2023-05-08T03:50:37.153Z,11.75
2023-05-08T03:53:05.789Z,11.77
2023-05-08T03:55:33.452Z,11.78
2023-05-08T03:58:33.674Z,11.80
2023-05-08T04:01:09.077Z,11.80
2023-05-08T04:03:39.248Z,11.80
2023-05-08T04:06:14.124Z,11.78
2023-05-08T04:08:46.231Z,11.79
2023-05-08T04:11:22.838Z,11.80
2023-05-08T04:13:50.823Z,11.82
2023-05-08T04:16:28.620Z,11.85
2023-05-08T04:19:02.051Z,11.87
2023-05-08T04:21:29.616Z,11.88
2023-05-08T04:23:56.883Z,11.87
2023-05-08T04:26:25.871Z,11.84
2023-05-08T04:28:54.122Z,11.80
2023-05-08T04:31:21.211Z,11.81
2023-05-08T04:33:48.303Z,11.80
2023-05-08T04:36:15.539Z,11.77
2023-05-08T04:38:44.240Z,11.75
2023-05-08T04:41:13.376Z,11.71
2023-05-08T04:43:41.250Z,11.67
2023-05-08T04:46:10.366Z,11.65
2023-05-08T04:48:39.785Z,11.66
2023-05-08T04:51:07.100Z,11.71
2023-05-08T04:53:34.362Z,11.75
2023-05-08T04:56:04.139Z,11.74
2023-05-08T04:58:32.169Z,11.71
2023-05-08T05:01:06.944Z,11.68
2023-05-08T05:03:36.907Z,11.68
2023-05-08T05:06:05.137Z,11.71
2023-05-08T05:08:33.209Z,11.77
2023-05-08T05:11:02.432Z,11.79
2023-05-08T05:13:32.146Z,11.79
2023-05-08T05:16:00.142Z,11.84
2023-05-08T05:18:27.645Z,11.91
2023-05-08T05:20:58.162Z,11.94
2023-05-08T05:23:29.416Z,11.98
2023-05-08T05:25:56.809Z,12.05
2023-05-08T05:28:23.974Z,12.12
2023-05-08T05:30:51.147Z,12.18
2023-05-08T05:33:18.284Z,12.19
2023-05-08T05:35:45.366Z,12.20
2023-05-08T05:38:12.865Z,12.18
2023-05-08T05:40:39.976Z,12.17
2023-05-08T05:43:07.108Z,12.20
2023-05-08T05:45:36.648Z,12.20
2023-05-08T05:48:05.459Z,12.17
2023-05-08T05:50:32.935Z,12.15
2023-05-08T05:53:01.989Z,12.11
2023-05-08T05:55:29.684Z,12.13
2023-05-08T05:57:57.497Z,12.16
2023-05-08T06:00:26.092Z,12.23
2023-05-08T06:02:54.318Z,12.30
2023-05-08T06:05:23.357Z,12.40
2023-05-08T06:08:18.053Z,12.49
2023-05-08T06:10:45.346Z,12.56
2023-05-08T06:13:13.232Z,12.62
2023-05-08T06:15:40.694Z,12.59
2023-05-08T06:18:07.977Z,12.56
2023-05-08T06:20:39.605Z,12.52
2023-05-08T06:23:13.887Z,12.49
2023-05-08T06:25:41.456Z,12.49
2023-05-08T06:28:08.542Z,12.47
2023-05-08T06:30:36.267Z,12.42
2023-05-08T06:33:04.229Z,12.40
2023-05-08T06:35:31.470Z,12.40
2023-05-08T06:38:00.704Z,12.47
2023-05-08T06:40:28.514Z,12.53
2023-05-08T06:42:55.664Z,12.53
2023-05-08T06:45:23.038Z,12.47
2023-05-08T06:47:50.807Z,12.48
2023-05-08T06:50:18.669Z,12.49
2023-05-08T06:52:46.177Z,12.51
2023-05-08T06:55:13.907Z,12.56
2023-05-08T06:57:42.581Z,12.64
2023-05-08T07:00:10.708Z,12.68
2023-05-08T07:02:37.900Z,12.69
2023-05-08T07:05:05.580Z,12.63
2023-05-08T07:07:34.124Z,12.67
2023-05-08T07:10:02.227Z,12.78
2023-05-08T07:12:29.464Z,12.89
2023-05-08T07:14:57.910Z,12.96
2023-05-08T07:17:25.210Z,13.06
2023-05-08T07:19:52.666Z,13.17
2023-05-08T07:22:19.808Z,13.33
2023-05-08T07:24:47.908Z,13.46
2023-05-08T07:27:14.999Z,13.58
2023-05-08T07:29:42.816Z,13.72
2023-05-08T07:32:10.514Z,13.81
2023-05-08T07:34:40.452Z,13.84
2023-05-08T07:37:07.709Z,13.92
2023-05-08T07:39:34.886Z,14.05
2023-05-08T07:42:01.947Z,14.17
2023-05-08T07:44:33.241Z,14.23
2023-05-08T07:47:04.953Z,14.23
2023-05-08T07:49:32.109Z,14.30
2023-05-08T07:51:59.321Z,14.42
2023-05-08T07:54:26.588Z,14.59
2023-05-08T07:56:53.685Z,14.66
2023-05-08T07:59:20.788Z,14.63
2023-05-08T08:01:47.927Z,14.50
2023-05-08T08:04:15.736Z,14.46
2023-05-08T08:06:42.862Z,14.41
2023-05-08T08:09:10.128Z,14.41
2023-05-08T08:11:37.421Z,14.45
2023-05-08T08:14:04.602Z,14.47
2023-05-08T08:16:34.328Z,14.50
2023-05-08T08:19:01.485Z,14.61
2023-05-08T08:21:29.004Z,14.72
2023-05-08T08:23:56.053Z,14.81
2023-05-08T08:26:23.033Z,14.91
2023-05-08T08:28:50.141Z,15.11
2023-05-08T08:31:17.611Z,15.26
2023-05-08T08:33:44.682Z,15.26
2023-05-08T08:36:15.426Z,15.25
2023-05-08T08:38:42.462Z,15.29
2023-05-08T08:41:09.436Z,15.33
2023-05-08T08:43:39.938Z,15.34
2023-05-08T08:46:11.735Z,15.33
2023-05-08T08:48:38.837Z,15.34
2023-05-08T08:51:07.345Z,15.35
2023-05-08T08:53:36.501Z,15.35
2023-05-08T08:56:03.782Z,15.35
2023-05-08T08:59:10.552Z,15.41
2023-05-08T09:01:39.550Z,15.55
2023-05-08T09:04:09.338Z,15.55
2023-05-08T09:06:37.274Z,15.48
2023-05-08T09:09:04.809Z,15.42
2023-05-08T09:11:32.019Z,15.42
2023-05-08T09:13:59.405Z,15.54
2023-05-08T09:16:26.492Z,15.77
2023-05-08T09:18:53.807Z,16.01
2023-05-08T09:21:22.957Z,16.23
2023-05-08T09:24:03.584Z,16.55
2023-05-08T09:26:35.513Z,16.85
2023-05-08T09:29:14.581Z,16.97
2023-05-08T09:31:49.463Z,17.08
2023-05-08T09:34:25.037Z,17.20
2023-05-08T09:36:52.139Z,17.34
2023-05-08T09:39:24.673Z,17.45
2023-05-08T09:42:02.109Z,17.52
2023-05-08T09:44:29.264Z,17.63
2023-05-08T09:47:13.009Z,17.55
2023-05-08T09:49:41.897Z,17.33
2023-05-08T09:52:09.057Z,17.19
2023-05-08T09:54:36.302Z,17.08
2023-05-08T09:57:12.213Z,17.08
2023-05-08T09:59:39.138Z,17.19
2023-05-08T10:02:13.040Z,17.24
2023-05-08T10:04:40.393Z,17.21
2023-05-08T10:07:07.506Z,17.12
2023-05-08T10:09:43.095Z,17.06
2023-05-08T10:12:17.121Z,17.08
2023-05-08T10:14:46.568Z,17.08
2023-05-08T10:17:14.161Z,17.08
2023-05-08T10:19:41.358Z,17.14
2023-05-08T10:22:08.459Z,17.29
2023-05-08T10:24:35.507Z,17.45
2023-05-08T10:27:28.431Z,17.60
2023-05-08T10:29:56.871Z,17.59
2023-05-08T10:32:24.412Z,17.56
2023-05-08T10:34:57.290Z,17.63
2023-05-08T10:37:24.380Z,17.85
2023-05-08T10:39:52.323Z,18.03
2023-05-08T10:42:19.337Z,18.14
2023-05-08T10:44:46.902Z,18.18
2023-05-08T10:47:34.330Z,18.27
2023-05-08T10:50:19.743Z,18.36
2023-05-08T10:53:05.755Z,18.42
2023-05-08T10:55:34.257Z,18.50
2023-05-08T10:58:10.622Z,18.42
2023-05-08T11:00:49.959Z,18.39
2023-05-08T11:03:30.500Z,18.44
2023-05-08T11:06:00.703Z,18.55
2023-05-08T11:08:28.457Z,18.73
2023-05-08T11:11:05.387Z,18.93
2023-05-08T11:13:37.184Z,19.07
2023-05-08T11:16:06.683Z,18.90
2023-05-08T11:21:09.561Z,18.36
2023-05-08T11:23:36.840Z,18.19
2023-05-08T11:26:14.451Z,18.02
2023-05-08T11:28:53.507Z,18.01
2023-05-08T11:31:20.916Z,18.01
2023-05-08T11:33:47.935Z,17.90
2023-05-08T11:36:15.382Z,17.75
2023-05-08T11:38:43.833Z,17.65
2023-05-08T11:41:12.123Z,17.58
2023-05-08T11:43:58.563Z,17.57
2023-05-08T11:46:29.788Z,17.58
2023-05-08T11:49:02.231Z,17.61
2023-05-08T11:51:33.248Z,17.64
2023-05-08T11:54:00.630Z,17.66
2023-05-08T11:56:27.816Z,17.76
2023-05-08T11:59:09.290Z,17.83
2023-05-08T12:01:36.833Z,17.94
2023-05-08T12:04:08.166Z,18.00
2023-05-08T12:06:37.778Z,18.05
2023-05-08T12:09:11.575Z,18.10
2023-05-08T12:11:41.324Z,18.25
2023-05-08T12:14:08.410Z,18.35
2023-05-08T12:16:38.997Z,18.34
2023-05-08T12:19:13.435Z,18.25
2023-05-08T12:21:50.252Z,18.16
2023-05-08T12:24:23.352Z,18.00
2023-05-08T12:26:54.413Z,17.82
2023-05-08T12:29:25.302Z,17.67
2023-05-08T12:31:53.668Z,17.57
2023-05-08T12:34:21.887Z,17.44
2023-05-08T12:36:49.128Z,17.28
2023-05-08T12:39:17.197Z,17.16
2023-05-08T12:41:51.310Z,17.11
2023-05-08T12:44:18.973Z,17.02
2023-05-08T12:46:50.160Z,16.88
2023-05-08T12:49:28.273Z,16.77
2023-05-08T12:52:08.565Z,16.72
2023-05-08T12:54:39.831Z,16.67
2023-05-08T12:57:17.265Z,16.55
2023-05-08T12:59:45.055Z,16.46
2023-05-08T13:02:21.768Z,16.42
2023-05-08T13:04:49.894Z,16.41
2023-05-08T13:07:17.062Z,16.42
2023-05-08T13:10:01.191Z,16.46
2023-05-08T13:12:28.164Z,16.49
2023-05-08T13:14:55.229Z,16.45
2023-05-08T13:17:22.607Z,16.38
2023-05-08T13:19:49.659Z,16.28
2023-05-08T13:22:16.909Z,16.23
2023-05-08T13:24:44.246Z,16.18
2023-05-08T13:27:13.953Z,16.09
2023-05-08T13:29:42.183Z,16.00
2023-05-08T13:32:09.389Z,15.95
2023-05-08T13:34:41.520Z,15.90
2023-05-08T13:37:15.131Z,15.82
2023-05-08T13:39:42.230Z,15.77
2023-05-08T13:42:09.269Z,15.72
2023-05-08T13:44:36.389Z,15.71
2023-05-08T13:47:04.624Z,15.72
2023-05-08T13:49:32.717Z,15.73
2023-05-08T13:51:59.871Z,15.68
2023-05-08T13:54:27.145Z,15.65
2023-05-08T13:56:54.922Z,15.64
2023-05-08T13:59:23.217Z,15.63
2023-05-08T14:01:51.061Z,15.59
2023-05-08T14:04:19.358Z,15.46
2023-05-08T14:06:46.727Z,15.31
2023-05-08T14:09:13.845Z,15.16
2023-05-08T14:11:40.935Z,15.06
2023-05-08T14:14:08.107Z,14.97
2023-05-08T14:16:35.902Z,14.89
2023-05-08T14:19:03.021Z,14.81
2023-05-08T14:21:31.150Z,14.71
2023-05-08T14:23:58.259Z,14.60
2023-05-08T14:26:26.566Z,14.51
2023-05-08T14:28:53.598Z,14.46
2023-05-08T14:31:20.854Z,14.41
2023-05-08T14:33:47.879Z,14.39
2023-05-08T14:36:14.928Z,14.37
2023-05-08T14:38:42.009Z,14.33
2023-05-08T14:41:09.064Z,14.28
2023-05-08T14:43:36.240Z,14.20
2023-05-08T14:46:03.415Z,14.11
2023-05-08T14:48:30.776Z,14.03
2023-05-08T14:50:57.947Z,13.97
2023-05-08T14:53:25.252Z,13.93
2023-05-08T14:55:52.738Z,13.89
2023-05-08T14:58:21.505Z,13.88
2023-05-08T15:00:48.558Z,13.86
2023-05-08T15:03:15.604Z,13.81
2023-05-08T15:05:42.738Z,13.76
2023-05-08T15:08:09.901Z,13.72
2023-05-08T15:10:37.178Z,13.69
2023-05-08T15:13:04.507Z,13.68
2023-05-08T15:15:31.692Z,13.70
2023-05-08T15:17:58.929Z,13.72
2023-05-08T15:20:26.212Z,13.73
2023-05-08T15:22:54.703Z,13.74
2023-05-08T15:25:21.748Z,13.75
2023-05-08T15:27:52.939Z,13.78
2023-05-08T15:30:20.452Z,13.78
2023-05-08T15:32:47.926Z,13.76
2023-05-08T15:35:15.374Z,13.75
2023-05-08T15:37:42.775Z,13.71
2023-05-08T15:40:10.173Z,13.66
2023-05-08T15:42:37.354Z,13.60
2023-05-08T15:45:04.679Z,13.54
2023-05-08T15:47:31.889Z,13.50
2023-05-08T15:49:58.973Z,13.45
2023-05-08T15:52:26.362Z,13.41
2023-05-08T15:54:54.723Z,13.38
2023-05-08T15:57:22.184Z,13.34
2023-05-08T15:59:49.472Z,13.31
2023-05-08T16:02:17.096Z,13.26
2023-05-08T16:04:44.389Z,13.18
2023-05-08T16:07:11.639Z,13.15
2023-05-08T16:09:38.641Z,13.10
2023-05-08T16:12:06.065Z,13.06
2023-05-08T16:14:33.230Z,13.01
2023-05-08T16:17:25.032Z,12.96
2023-05-08T16:19:53.439Z,12.94
2023-05-08T16:22:23.449Z,12.91
2023-05-08T16:24:53.616Z,12.91
2023-05-08T16:27:22.220Z,12.90
2023-05-08T16:29:49.837Z,12.89
2023-05-08T16:32:17.640Z,12.87
2023-05-08T16:34:46.215Z,12.84
2023-05-08T16:37:13.360Z,12.83
2023-05-08T16:39:44.369Z,12.81
2023-05-08T16:42:12.082Z,12.80
2023-05-08T16:44:39.395Z,12.79
2023-05-08T16:47:06.787Z,12.79
2023-05-08T16:49:34.850Z,12.79
2023-05-08T16:52:02.033Z,12.82
2023-05-08T16:54:29.154Z,12.87
2023-05-08T16:56:56.357Z,12.83
2023-05-08T16:59:23.442Z,12.79
2023-05-08T17:01:50.613Z,12.71
2023-05-08T17:04:17.689Z,12.68
2023-05-08T17:06:45.008Z,12.62
2023-05-08T17:09:12.426Z,12.58
2023-05-08T17:11:39.609Z,12.55
2023-05-08T17:14:06.884Z,12.47
2023-05-08T17:16:34.275Z,12.43
2023-05-08T17:19:01.800Z,12.38
2023-05-08T17:21:30.399Z,12.33
2023-05-08T17:23:58.995Z,12.29
2023-05-08T17:26:26.960Z,12.25
2023-05-08T17:28:54.232Z,12.22
2023-05-08T17:31:21.432Z,12.18
2023-05-08T17:33:48.883Z,12.13
2023-05-08T17:36:15.893Z,12.08
2023-05-08T17:38:46.088Z,12.10
2023-05-08T17:41:13.653Z,12.05
2023-05-08T17:43:40.769Z,12.04
2023-05-08T17:46:08.228Z,12.03
2023-05-08T17:48:37.115Z,12.08
2023-05-08T17:51:05.176Z,12.09
2023-05-08T17:53:34.701Z,12.13
2023-05-08T17:56:02.476Z,12.14
2023-05-08T17:58:55.925Z,12.13
2023-05-08T18:01:26.472Z,12.13
2023-05-08T18:03:53.876Z,12.07
2023-05-08T18:06:23.732Z,12.05
2023-05-08T18:08:52.459Z,12.05
2023-05-08T18:11:20.923Z,12.05
2023-05-08T18:13:48.177Z,12.03
2023-05-08T18:16:16.914Z,12.00
2023-05-08T18:18:44.313Z,11.97
2023-05-08T18:21:11.843Z,11.94
2023-05-08T18:23:38.988Z,11.94
2023-05-08T18:26:06.351Z,11.94
2023-05-08T18:28:33.708Z,11.94
2023-05-08T18:33:44.985Z,11.92
2023-05-08T18:36:13.565Z,11.90
2023-05-08T18:38:42.277Z,11.93
2023-05-08T18:41:12.731Z,11.92
2023-05-08T18:43:43.012Z,11.92
2023-05-08T18:46:13.214Z,11.87
2023-05-08T18:48:43.981Z,11.87
2023-05-08T18:51:11.169Z,11.88
2023-05-08T18:53:39.098Z,11.82
2023-05-08T18:56:06.387Z,11.80
2023-05-08T18:58:36.824Z,11.79
2023-05-08T19:01:04.201Z,11.79
2023-05-08T19:03:32.937Z,11.77
2023-05-08T19:06:02.192Z,11.81
2023-05-08T19:08:30.302Z,11.82
2023-05-08T19:10:57.793Z,11.79
2023-05-08T19:13:26.758Z,11.73
2023-05-08T19:15:54.552Z,11.69
2023-05-08T19:18:22.132Z,11.67
2023-05-08T19:20:49.263Z,11.69
2023-05-08T19:23:18.690Z,11.64
2023-05-08T19:25:45.825Z,11.60
2023-05-08T19:28:13.014Z,11.56
2023-05-08T19:30:40.859Z,11.56
2023-05-08T19:33:09.307Z,11.54
2023-05-08T19:35:36.744Z,11.55
2023-05-08T19:38:03.981Z,11.56
2023-05-08T19:40:31.842Z,11.55
2023-05-08T19:42:59.967Z,11.56
2023-05-08T19:45:31.277Z,11.59
2023-05-08T19:48:08.154Z,11.57
2023-05-08T19:50:44.446Z,11.60
2023-05-08T19:53:21.279Z,11.61
2023-05-08T19:55:49.518Z,11.53
2023-05-08T19:58:18.142Z,11.53
2023-05-08T20:00:50.988Z,11.48
2023-05-08T20:03:18.849Z,11.43
2023-05-08T20:05:46.193Z,11.42
2023-05-08T20:08:13.231Z,11.39
2023-05-08T20:10:41.270Z,11.34
2023-05-08T20:13:10.135Z,11.28
2023-05-08T20:15:37.618Z,11.25
2023-05-08T20:18:06.086Z,11.20
2023-05-08T20:20:35.011Z,11.18
2023-05-08T20:23:03.109Z,11.17
2023-05-08T20:25:30.489Z,11.16
2023-05-08T20:27:57.777Z,11.19
2023-05-08T20:30:25.116Z,11.20
2023-05-08T20:32:52.264Z,11.20
2023-05-08T20:35:19.366Z,11.21
2023-05-08T20:37:47.422Z,11.26
2023-05-08T20:40:15.786Z,11.31
2023-05-08T20:42:44.804Z,11.32
2023-05-08T20:45:11.917Z,11.35
2023-05-08T20:47:39.511Z,11.36
2023-05-08T20:50:07.512Z,11.40
2023-05-08T20:52:36.076Z,11.44
2023-05-08T20:55:05.317Z,11.48
2023-05-08T20:57:32.362Z,11.46
2023-05-08T20:59:59.499Z,11.41
2023-05-08T21:02:26.836Z,11.37
2023-05-08T21:04:53.950Z,11.39
2023-05-08T21:07:21.250Z,11.40
2023-05-08T21:09:48.302Z,11.34
2023-05-08T21:12:15.294Z,11.32
2023-05-08T21:14:44.118Z,11.29
2023-05-08T21:17:11.167Z,11.30
2023-05-08T21:19:38.434Z,11.26
2023-05-08T21:22:05.520Z,11.24
2023-05-08T21:24:32.613Z,11.24
2023-05-08T21:27:00.165Z,11.26
2023-05-08T21:29:27.324Z,11.27
2023-05-08T21:31:54.479Z,11.27
2023-05-08T21:34:21.659Z,11.25
2023-05-08T21:36:48.669Z,11.22
2023-05-08T21:39:15.858Z,11.18
2023-05-08T21:41:43.951Z,11.18
2023-05-08T21:44:12.935Z,11.17
2023-05-08T21:46:40.140Z,11.14
2023-05-08T21:49:07.273Z,11.20
2023-05-08T21:51:35.042Z,11.17
2023-05-08T21:54:02.119Z,11.16
2023-05-08T21:56:29.164Z,11.13
2023-05-08T21:58:56.278Z,11.15
2023-05-08T22:01:23.352Z,11.12
2023-05-08T22:03:50.509Z,11.22
2023-05-08T22:06:17.666Z,11.23
2023-05-08T22:08:44.672Z,11.15
2023-05-08T22:11:11.695Z,11.11
2023-05-08T22:13:38.750Z,11.12
2023-05-08T22:16:06.463Z,11.22
2023-05-08T22:18:33.512Z,11.22
2023-05-08T22:21:00.576Z,11.21
2023-05-08T22:23:27.580Z,11.23
2023-05-08T22:25:54.604Z,11.23
2023-05-08T22:28:21.650Z,11.24
2023-05-08T22:30:48.650Z,11.21
2023-05-08T22:33:15.638Z,11.19
2023-05-08T22:35:42.736Z,11.17
2023-05-08T22:38:09.992Z,11.17
2023-05-08T22:40:37.021Z,11.17
2023-05-08T22:43:04.242Z,11.17
2023-05-08T22:45:32.227Z,11.16
2023-05-08T22:47:59.370Z,11.15
2023-05-08T22:50:26.928Z,11.13
2023-05-08T22:52:53.947Z,11.11
2023-05-08T22:55:21.053Z,11.12
2023-05-08T22:57:48.048Z,11.12
2023-05-08T23:00:16.429Z,11.15
2023-05-08T23:02:43.492Z,11.16
2023-05-08T23:05:10.607Z,11.17
2023-05-08T23:07:38.118Z,11.16
2023-05-08T23:10:05.408Z,11.17
2023-05-08T23:12:32.374Z,11.18
2023-05-08T23:14:59.451Z,11.15
2023-05-08T23:17:26.527Z,11.15
2023-05-08T23:19:53.574Z,11.14
2023-05-08T23:22:20.645Z,11.10
2023-05-08T23:24:48.335Z,11.03
2023-05-08T23:27:15.307Z,11.03
2023-05-08T23:29:42.305Z,10.97
2023-05-08T23:32:09.363Z,10.95
2023-05-08T23:34:36.432Z,10.94
2023-05-08T23:37:03.495Z,10.94
2023-05-08T23:39:32.377Z,10.94
2023-05-08T23:41:59.384Z,10.90
2023-05-08T23:44:26.381Z,10.90
2023-05-08T23:46:53.460Z,10.85
2023-05-08T23:49:21.052Z,10.81
2023-05-08T23:51:48.144Z,10.79
2023-05-08T23:54:15.133Z,10.75
2023-05-08T23:56:42.156Z,10.70
2023-05-08T23:59:09.150Z,10.68
